Terminal Aerodrome Forecast
Issued by NWS

Home | Current Version | Previous Version | Text Only | Print | Product List | Glossary On
Versions: 1 2 3 4 5 6 7 8 9 10 11 12
000
FTUS41 KBTV 292320
TAFMSS
TAF
KMSS 292320Z 3000/3024 36004KT P6SM FEW100
     FM302300 06004KT P6SM FEW130=

USA.gov is the U.S. government's official web portal to all federal, state and local government web resources and services.